sensor_id;sensor_type;location;lat;lon;timestamp;temperature;humidity
7384;DHT22;3733;47.994;8.820;2023-09-18T00:01:55;17.00;99.90
7384;DHT22;3733;47.994;8.820;2023-09-18T00:04:21;17.00;99.90
7384;DHT22;3733;47.994;8.820;2023-09-18T00:06:46;17.00;99.90
7384;DHT22;3733;47.994;8.820;2023-09-18T00:09:12;17.00;99.90
7384;DHT22;3733;47.994;8.820;2023-09-18T00:11:39;17.10;99.90
7384;DHT22;3733;47.994;8.820;2023-09-18T00:14:05;17.20;99.90
7384;DHT22;3733;47.994;8.820;2023-09-18T00:16:31;17.20;99.90
7384;DHT22;3733;47.994;8.820;2023-09-18T00:18:58;17.30;99.90
7384;DHT22;3733;47.994;8.820;2023-09-18T00:21:23;17.30;99.90
7384;DHT22;3733;47.994;8.820;2023-09-18T00:23:51;17.30;99.90
7384;DHT22;3733;47.994;8.820;2023-09-18T00:26:17;17.30;99.90
7384;DHT22;3733;47.994;8.820;2023-09-18T00:28:42;17.30;99.90
7384;DHT22;3733;47.994;8.820;2023-09-18T00:31:08;17.20;99.90
7384;DHT22;3733;47.994;8.820;2023-09-18T00:33:33;17.10;99.90
7384;DHT22;3733;47.994;8.820;2023-09-18T00:35:59;17.10;99.90
7384;DHT22;3733;47.994;8.820;2023-09-18T00:38:25;17.00;99.90
7384;DHT22;3733;47.994;8.820;2023-09-18T00:40:50;17.00;99.90
7384;DHT22;3733;47.994;8.820;2023-09-18T00:43:16;17.00;99.90
7384;DHT22;3733;47.994;8.820;2023-09-18T00:45:45;17.00;99.90
7384;DHT22;3733;47.994;8.820;2023-09-18T00:48:11;17.00;99.90
7384;DHT22;3733;47.994;8.820;2023-09-18T00:50:37;17.00;99.90
7384;DHT22;3733;47.994;8.820;2023-09-18T00:53:04;16.90;99.90
7384;DHT22;3733;47.994;8.820;2023-09-18T00:55:30;16.90;99.90
7384;DHT22;3733;47.994;8.820;2023-09-18T00:57:57;16.90;99.90
7384;DHT22;3733;47.994;8.820;2023-09-18T01:00:23;16.90;99.90
7384;DHT22;3733;47.994;8.820;2023-09-18T01:02:49;16.90;99.90
7384;DHT22;3733;47.994;8.820;2023-09-18T01:05:15;16.90;99.90
7384;DHT22;3733;47.994;8.820;2023-09-18T01:07:45;16.80;99.90
7384;DHT22;3733;47.994;8.820;2023-09-18T01:10:11;16.90;99.90
7384;DHT22;3733;47.994;8.820;2023-09-18T01:12:53;16.90;99.90
7384;DHT22;3733;47.994;8.820;2023-09-18T01:15:44;16.80;99.90
7384;DHT22;3733;47.994;8.820;2023-09-18T01:18:13;16.80;99.90
7384;DHT22;3733;47.994;8.820;2023-09-18T01:20:39;16.80;99.90
7384;DHT22;3733;47.994;8.820;2023-09-18T01:23:04;16.80;99.90
7384;DHT22;3733;47.994;8.820;2023-09-18T01:25:33;16.80;99.90
7384;DHT22;3733;47.994;8.820;2023-09-18T01:27:59;16.80;99.90
7384;DHT22;3733;47.994;8.820;2023-09-18T01:30:25;16.80;99.90
7384;DHT22;3733;47.994;8.820;2023-09-18T01:32:51;16.80;99.90
7384;DHT22;3733;47.994;8.820;2023-09-18T01:35:19;16.80;99.90
7384;DHT22;3733;47.994;8.820;2023-09-18T01:37:45;16.80;99.90
7384;DHT22;3733;47.994;8.820;2023-09-18T01:40:11;16.80;99.90
7384;DHT22;3733;47.994;8.820;2023-09-18T01:42:37;16.70;99.90
7384;DHT22;3733;47.994;8.820;2023-09-18T01:45:03;16.70;99.90
7384;DHT22;3733;47.994;8.820;2023-09-18T01:47:30;16.70;99.90
7384;DHT22;3733;47.994;8.820;2023-09-18T01:49:56;16.80;99.90
7384;DHT22;3733;47.994;8.820;2023-09-18T01:52:22;16.80;99.90
7384;DHT22;3733;47.994;8.820;2023-09-18T01:54:47;16.80;99.90
7384;DHT22;3733;47.994;8.820;2023-09-18T01:57:14;16.70;99.90
7384;DHT22;3733;47.994;8.820;2023-09-18T01:59:39;16.70;99.90
7384;DHT22;3733;47.994;8.820;2023-09-18T02:02:07;16.70;99.90
7384;DHT22;3733;47.994;8.820;2023-09-18T02:04:34;16.70;99.90
7384;DHT22;3733;47.994;8.820;2023-09-18T02:06:59;16.70;99.90
7384;DHT22;3733;47.994;8.820;2023-09-18T02:09:25;16.70;99.90
7384;DHT22;3733;47.994;8.820;2023-09-18T02:11:51;16.80;99.90
7384;DHT22;3733;47.994;8.820;2023-09-18T02:14:16;16.80;99.90
7384;DHT22;3733;47.994;8.820;2023-09-18T02:16:43;16.80;99.90
7384;DHT22;3733;47.994;8.820;2023-09-18T02:19:09;16.80;99.90
7384;DHT22;3733;47.994;8.820;2023-09-18T02:21:36;16.80;99.90
7384;DHT22;3733;47.994;8.820;2023-09-18T02:24:01;16.90;99.90
7384;DHT22;3733;47.994;8.820;2023-09-18T02:26:28;16.90;99.90
7384;DHT22;3733;47.994;8.820;2023-09-18T02:28:54;16.90;99.90
7384;DHT22;3733;47.994;8.820;2023-09-18T02:31:20;16.90;99.90
7384;DHT22;3733;47.994;8.820;2023-09-18T02:33:46;16.80;99.90
7384;DHT22;3733;47.994;8.820;2023-09-18T02:36:12;16.80;99.90
7384;DHT22;3733;47.994;8.820;2023-09-18T02:38:38;16.80;99.90
7384;DHT22;3733;47.994;8.820;2023-09-18T02:41:03;16.80;99.90
7384;DHT22;3733;47.994;8.820;2023-09-18T02:43:29;16.70;99.90
7384;DHT22;3733;47.994;8.820;2023-09-18T02:45:55;16.70;99.90
7384;DHT22;3733;47.994;8.820;2023-09-18T02:48:20;16.70;99.90
7384;DHT22;3733;47.994;8.820;2023-09-18T02:50:46;16.70;99.90
7384;DHT22;3733;47.994;8.820;2023-09-18T02:53:17;16.60;99.90
7384;DHT22;3733;47.994;8.820;2023-09-18T02:55:44;16.60;99.90
7384;DHT22;3733;47.994;8.820;2023-09-18T02:58:10;16.50;99.90
7384;DHT22;3733;47.994;8.820;2023-09-18T03:00:43;16.50;99.90
7384;DHT22;3733;47.994;8.820;2023-09-18T03:03:10;16.50;99.90
7384;DHT22;3733;47.994;8.820;2023-09-18T03:05:36;16.50;99.90
7384;DHT22;3733;47.994;8.820;2023-09-18T03:08:03;16.50;99.90
7384;DHT22;3733;47.994;8.820;2023-09-18T03:10:33;16.50;99.90
7384;DHT22;3733;47.994;8.820;2023-09-18T03:13:00;16.50;99.90
7384;DHT22;3733;47.994;8.820;2023-09-18T03:15:25;16.50;99.90
7384;DHT22;3733;47.994;8.820;2023-09-18T03:17:51;16.50;99.90
7384;DHT22;3733;47.994;8.820;2023-09-18T03:20:17;16.50;99.90
7384;DHT22;3733;47.994;8.820;2023-09-18T03:22:42;16.60;99.90
7384;DHT22;3733;47.994;8.820;2023-09-18T03:25:08;16.60;99.90
7384;DHT22;3733;47.994;8.820;2023-09-18T03:27:33;16.60;99.90
7384;DHT22;3733;47.994;8.820;2023-09-18T03:29:59;16.70;99.90
7384;DHT22;3733;47.994;8.820;2023-09-18T03:32:24;16.70;99.90
7384;DHT22;3733;47.994;8.820;2023-09-18T03:34:51;16.70;99.90
7384;DHT22;3733;47.994;8.820;2023-09-18T03:37:16;16.70;99.90
7384;DHT22;3733;47.994;8.820;2023-09-18T03:39:42;16.70;99.90
7384;DHT22;3733;47.994;8.820;2023-09-18T03:42:08;16.70;99.90
7384;DHT22;3733;47.994;8.820;2023-09-18T03:44:33;16.70;99.90
7384;DHT22;3733;47.994;8.820;2023-09-18T03:46:59;16.70;99.90
7384;DHT22;3733;47.994;8.820;2023-09-18T03:49:24;16.80;99.90
7384;DHT22;3733;47.994;8.820;2023-09-18T03:51:50;16.80;99.90
7384;DHT22;3733;47.994;8.820;2023-09-18T03:54:15;16.80;99.90
7384;DHT22;3733;47.994;8.820;2023-09-18T03:56:41;16.80;99.90
7384;DHT22;3733;47.994;8.820;2023-09-18T03:59:07;16.80;99.90
7384;DHT22;3733;47.994;8.820;2023-09-18T04:01:32;16.80;99.90
7384;DHT22;3733;47.994;8.820;2023-09-18T04:03:58;16.90;99.90
7384;DHT22;3733;47.994;8.820;2023-09-18T04:06:23;17.00;99.90
7384;DHT22;3733;47.994;8.820;2023-09-18T04:08:52;17.00;99.90
7384;DHT22;3733;47.994;8.820;2023-09-18T04:11:17;17.10;99.90
7384;DHT22;3733;47.994;8.820;2023-09-18T04:13:50;17.20;99.90
7384;DHT22;3733;47.994;8.820;2023-09-18T04:16:15;17.20;99.90
7384;DHT22;3733;47.994;8.820;2023-09-18T04:18:43;17.20;99.90
7384;DHT22;3733;47.994;8.820;2023-09-18T04:21:08;17.20;99.90
7384;DHT22;3733;47.994;8.820;2023-09-18T04:23:35;17.30;99.90
7384;DHT22;3733;47.994;8.820;2023-09-18T04:26:02;17.30;99.90
7384;DHT22;3733;47.994;8.820;2023-09-18T04:28:27;17.40;99.90
7384;DHT22;3733;47.994;8.820;2023-09-18T04:30:53;17.40;99.90
7384;DHT22;3733;47.994;8.820;2023-09-18T04:33:19;17.40;99.90
7384;DHT22;3733;47.994;8.820;2023-09-18T04:35:46;17.40;99.90
7384;DHT22;3733;47.994;8.820;2023-09-18T04:38:12;17.30;99.90
7384;DHT22;3733;47.994;8.820;2023-09-18T04:40:40;17.30;99.90
7384;DHT22;3733;47.994;8.820;2023-09-18T04:43:06;17.30;99.90
7384;DHT22;3733;47.994;8.820;2023-09-18T04:45:32;17.30;99.90
7384;DHT22;3733;47.994;8.820;2023-09-18T04:47:58;17.30;99.90
7384;DHT22;3733;47.994;8.820;2023-09-18T04:50:23;17.30;99.90
7384;DHT22;3733;47.994;8.820;2023-09-18T04:52:52;17.40;99.90
7384;DHT22;3733;47.994;8.820;2023-09-18T04:55:19;17.40;99.90
7384;DHT22;3733;47.994;8.820;2023-09-18T04:57:45;17.40;99.90
7384;DHT22;3733;47.994;8.820;2023-09-18T05:00:11;17.40;99.90
7384;DHT22;3733;47.994;8.820;2023-09-18T05:02:39;17.40;99.90
7384;DHT22;3733;47.994;8.820;2023-09-18T05:05:06;17.40;99.90
7384;DHT22;3733;47.994;8.820;2023-09-18T05:07:34;17.40;99.90
7384;DHT22;3733;47.994;8.820;2023-09-18T05:09:59;17.40;99.90
7384;DHT22;3733;47.994;8.820;2023-09-18T05:12:25;17.50;99.90
7384;DHT22;3733;47.994;8.820;2023-09-18T05:14:51;17.50;99.90
7384;DHT22;3733;47.994;8.820;2023-09-18T05:17:17;17.50;99.90
7384;DHT22;3733;47.994;8.820;2023-09-18T05:19:44;17.60;99.90
7384;DHT22;3733;47.994;8.820;2023-09-18T05:22:10;17.60;99.90
7384;DHT22;3733;47.994;8.820;2023-09-18T05:24:37;17.50;99.90
7384;DHT22;3733;47.994;8.820;2023-09-18T05:27:03;17.50;99.90
7384;DHT22;3733;47.994;8.820;2023-09-18T05:29:29;17.50;99.90
7384;DHT22;3733;47.994;8.820;2023-09-18T05:31:54;17.50;99.90
7384;DHT22;3733;47.994;8.820;2023-09-18T05:34:20;17.50;99.90
7384;DHT22;3733;47.994;8.820;2023-09-18T05:36:45;17.50;99.90
7384;DHT22;3733;47.994;8.820;2023-09-18T05:39:11;17.40;99.90
7384;DHT22;3733;47.994;8.820;2023-09-18T05:41:39;17.40;99.90
7384;DHT22;3733;47.994;8.820;2023-09-18T05:44:05;17.40;99.90
7384;DHT22;3733;47.994;8.820;2023-09-18T05:46:34;17.40;99.90
7384;DHT22;3733;47.994;8.820;2023-09-18T05:49:00;17.40;99.90
7384;DHT22;3733;47.994;8.820;2023-09-18T05:51:26;17.40;99.90
7384;DHT22;3733;47.994;8.820;2023-09-18T05:53:52;17.50;99.90
7384;DHT22;3733;47.994;8.820;2023-09-18T05:56:18;17.50;99.90
7384;DHT22;3733;47.994;8.820;2023-09-18T05:58:44;17.50;99.90
7384;DHT22;3733;47.994;8.820;2023-09-18T06:01:09;17.50;99.90
7384;DHT22;3733;47.994;8.820;2023-09-18T06:03:35;17.50;99.90
7384;DHT22;3733;47.994;8.820;2023-09-18T06:06:07;17.60;99.90
7384;DHT22;3733;47.994;8.820;2023-09-18T06:08:35;17.60;99.90
7384;DHT22;3733;47.994;8.820;2023-09-18T06:11:01;17.60;99.90
7384;DHT22;3733;47.994;8.820;2023-09-18T06:13:27;17.60;99.90
7384;DHT22;3733;47.994;8.820;2023-09-18T06:15:56;17.60;99.90
7384;DHT22;3733;47.994;8.820;2023-09-18T06:18:22;17.60;99.90
7384;DHT22;3733;47.994;8.820;2023-09-18T06:20:48;17.60;99.90
7384;DHT22;3733;47.994;8.820;2023-09-18T06:23:14;17.60;99.90
7384;DHT22;3733;47.994;8.820;2023-09-18T06:25:40;17.60;99.90
7384;DHT22;3733;47.994;8.820;2023-09-18T06:28:05;17.60;99.90
7384;DHT22;3733;47.994;8.820;2023-09-18T06:30:32;17.60;99.90
7384;DHT22;3733;47.994;8.820;2023-09-18T06:33:01;17.70;99.90
7384;DHT22;3733;47.994;8.820;2023-09-18T06:35:29;17.60;99.90
7384;DHT22;3733;47.994;8.820;2023-09-18T06:37:55;17.70;99.90
7384;DHT22;3733;47.994;8.820;2023-09-18T06:40:24;17.70;99.90
7384;DHT22;3733;47.994;8.820;2023-09-18T06:42:50;17.70;99.90
7384;DHT22;3733;47.994;8.820;2023-09-18T06:45:17;17.70;99.90
7384;DHT22;3733;47.994;8.820;2023-09-18T06:47:42;17.70;99.90
7384;DHT22;3733;47.994;8.820;2023-09-18T06:50:08;17.80;99.90
7384;DHT22;3733;47.994;8.820;2023-09-18T06:52:34;17.80;99.90
7384;DHT22;3733;47.994;8.820;2023-09-18T06:55:00;17.90;99.90
7384;DHT22;3733;47.994;8.820;2023-09-18T06:57:26;17.90;99.90
7384;DHT22;3733;47.994;8.820;2023-09-18T06:59:53;17.90;99.90
7384;DHT22;3733;47.994;8.820;2023-09-18T07:02:18;17.90;99.90
7384;DHT22;3733;47.994;8.820;2023-09-18T07:04:44;17.90;99.90
7384;DHT22;3733;47.994;8.820;2023-09-18T07:07:15;18.00;99.90
7384;DHT22;3733;47.994;8.820;2023-09-18T07:09:41;18.00;99.90
7384;DHT22;3733;47.994;8.820;2023-09-18T07:12:10;18.00;99.90
7384;DHT22;3733;47.994;8.820;2023-09-18T07:14:36;18.00;99.90
7384;DHT22;3733;47.994;8.820;2023-09-18T07:17:03;18.00;99.90
7384;DHT22;3733;47.994;8.820;2023-09-18T07:19:29;18.00;99.90
7384;DHT22;3733;47.994;8.820;2023-09-18T07:21:55;18.00;99.90
7384;DHT22;3733;47.994;8.820;2023-09-18T07:24:20;18.00;99.90
7384;DHT22;3733;47.994;8.820;2023-09-18T07:26:47;18.00;99.90
7384;DHT22;3733;47.994;8.820;2023-09-18T07:29:16;18.00;99.90
7384;DHT22;3733;47.994;8.820;2023-09-18T07:31:43;18.00;99.90
7384;DHT22;3733;47.994;8.820;2023-09-18T07:34:09;18.00;99.90
7384;DHT22;3733;47.994;8.820;2023-09-18T07:36:35;18.00;99.90
7384;DHT22;3733;47.994;8.820;2023-09-18T07:39:00;18.00;99.90
7384;DHT22;3733;47.994;8.820;2023-09-18T07:41:26;18.10;99.90
7384;DHT22;3733;47.994;8.820;2023-09-18T07:43:52;18.10;99.90
7384;DHT22;3733;47.994;8.820;2023-09-18T07:46:18;18.10;99.90
7384;DHT22;3733;47.994;8.820;2023-09-18T07:48:43;18.20;99.90
7384;DHT22;3733;47.994;8.820;2023-09-18T07:51:12;18.10;99.90
7384;DHT22;3733;47.994;8.820;2023-09-18T07:53:39;18.10;99.90
7384;DHT22;3733;47.994;8.820;2023-09-18T07:56:05;18.00;99.90
7384;DHT22;3733;47.994;8.820;2023-09-18T07:58:31;17.90;99.90
7384;DHT22;3733;47.994;8.820;2023-09-18T08:00:58;17.90;99.90
7384;DHT22;3733;47.994;8.820;2023-09-18T08:03:25;17.70;99.90
7384;DHT22;3733;47.994;8.820;2023-09-18T08:05:52;17.60;99.90
7384;DHT22;3733;47.994;8.820;2023-09-18T08:08:19;17.60;99.90
7384;DHT22;3733;47.994;8.820;2023-09-18T08:10:49;17.40;99.90
7384;DHT22;3733;47.994;8.820;2023-09-18T08:13:16;17.40;99.90
7384;DHT22;3733;47.994;8.820;2023-09-18T08:15:42;17.40;99.90
7384;DHT22;3733;47.994;8.820;2023-09-18T08:18:09;17.40;99.90
7384;DHT22;3733;47.994;8.820;2023-09-18T08:20:36;17.40;99.90
7384;DHT22;3733;47.994;8.820;2023-09-18T08:23:03;17.50;99.90
7384;DHT22;3733;47.994;8.820;2023-09-18T08:25:31;17.50;99.90
7384;DHT22;3733;47.994;8.820;2023-09-18T08:27:56;17.50;99.90
7384;DHT22;3733;47.994;8.820;2023-09-18T08:30:22;17.50;99.90
7384;DHT22;3733;47.994;8.820;2023-09-18T08:32:47;17.50;99.90
7384;DHT22;3733;47.994;8.820;2023-09-18T08:35:13;17.50;99.90
7384;DHT22;3733;47.994;8.820;2023-09-18T08:37:42;17.50;99.90
7384;DHT22;3733;47.994;8.820;2023-09-18T08:40:12;17.50;99.90
7384;DHT22;3733;47.994;8.820;2023-09-18T08:42:40;17.50;99.90
7384;DHT22;3733;47.994;8.820;2023-09-18T08:45:10;17.50;99.90
7384;DHT22;3733;47.994;8.820;2023-09-18T08:47:38;17.50;99.90
7384;DHT22;3733;47.994;8.820;2023-09-18T08:50:06;17.40;99.90
7384;DHT22;3733;47.994;8.820;2023-09-18T08:52:35;17.40;99.90
7384;DHT22;3733;47.994;8.820;2023-09-18T08:55:01;17.40;99.90
7384;DHT22;3733;47.994;8.820;2023-09-18T08:57:28;17.40;99.90
7384;DHT22;3733;47.994;8.820;2023-09-18T08:59:56;17.30;99.90
7384;DHT22;3733;47.994;8.820;2023-09-18T09:02:23;17.30;99.90
7384;DHT22;3733;47.994;8.820;2023-09-18T09:04:48;17.30;99.90
7384;DHT22;3733;47.994;8.820;2023-09-18T09:07:14;17.30;99.90
7384;DHT22;3733;47.994;8.820;2023-09-18T09:09:40;17.30;99.90
7384;DHT22;3733;47.994;8.820;2023-09-18T09:12:07;17.30;99.90
7384;DHT22;3733;47.994;8.820;2023-09-18T09:14:33;17.30;99.90
7384;DHT22;3733;47.994;8.820;2023-09-18T09:16:59;17.30;99.90
7384;DHT22;3733;47.994;8.820;2023-09-18T09:19:33;17.30;99.90
7384;DHT22;3733;47.994;8.820;2023-09-18T09:22:01;17.30;99.90
7384;DHT22;3733;47.994;8.820;2023-09-18T09:24:41;17.30;99.90
7384;DHT22;3733;47.994;8.820;2023-09-18T09:27:07;17.30;99.90
7384;DHT22;3733;47.994;8.820;2023-09-18T09:29:34;17.30;99.90
7384;DHT22;3733;47.994;8.820;2023-09-18T09:32:16;17.30;99.90
7384;DHT22;3733;47.994;8.820;2023-09-18T09:34:43;17.40;99.90
7384;DHT22;3733;47.994;8.820;2023-09-18T09:37:09;17.40;99.90
7384;DHT22;3733;47.994;8.820;2023-09-18T09:39:49;17.40;99.90
7384;DHT22;3733;47.994;8.820;2023-09-18T09:42:20;17.50;99.90
7384;DHT22;3733;47.994;8.820;2023-09-18T09:45:11;17.40;99.90
7384;DHT22;3733;47.994;8.820;2023-09-18T09:47:38;17.50;99.90
7384;DHT22;3733;47.994;8.820;2023-09-18T09:50:15;17.50;99.90
7384;DHT22;3733;47.994;8.820;2023-09-18T09:52:49;17.50;99.90
7384;DHT22;3733;47.994;8.820;2023-09-18T09:57:57;17.40;99.90
7384;DHT22;3733;47.994;8.820;2023-09-18T10:00:50;17.40;99.90
7384;DHT22;3733;47.994;8.820;2023-09-18T10:03:18;17.50;99.90
7384;DHT22;3733;47.994;8.820;2023-09-18T10:05:46;17.50;99.90
7384;DHT22;3733;47.994;8.820;2023-09-18T10:08:23;17.50;99.90
7384;DHT22;3733;47.994;8.820;2023-09-18T10:10:53;17.50;99.90
7384;DHT22;3733;47.994;8.820;2023-09-18T10:15:51;17.50;99.90
7384;DHT22;3733;47.994;8.820;2023-09-18T10:18:28;17.60;99.90
7384;DHT22;3733;47.994;8.820;2023-09-18T10:21:35;17.60;99.90
7384;DHT22;3733;47.994;8.820;2023-09-18T10:24:20;17.60;99.90
7384;DHT22;3733;47.994;8.820;2023-09-18T10:26:59;17.60;99.90
7384;DHT22;3733;47.994;8.820;2023-09-18T10:29:25;17.70;99.90
7384;DHT22;3733;47.994;8.820;2023-09-18T10:31:52;17.70;99.90
7384;DHT22;3733;47.994;8.820;2023-09-18T10:34:20;17.70;99.90
7384;DHT22;3733;47.994;8.820;2023-09-18T10:36:54;17.70;99.90
7384;DHT22;3733;47.994;8.820;2023-09-18T10:39:21;17.70;99.90
7384;DHT22;3733;47.994;8.820;2023-09-18T10:41:53;17.60;99.90
7384;DHT22;3733;47.994;8.820;2023-09-18T10:44:20;17.60;99.90
7384;DHT22;3733;47.994;8.820;2023-09-18T10:46:46;17.60;99.90
7384;DHT22;3733;47.994;8.820;2023-09-18T10:49:17;17.60;99.90
7384;DHT22;3733;47.994;8.820;2023-09-18T10:51:43;17.60;99.90
7384;DHT22;3733;47.994;8.820;2023-09-18T10:54:10;17.50;99.90
7384;DHT22;3733;47.994;8.820;2023-09-18T10:56:36;17.50;99.90
7384;DHT22;3733;47.994;8.820;2023-09-18T10:59:06;17.50;99.90
7384;DHT22;3733;47.994;8.820;2023-09-18T11:01:33;17.50;99.90
7384;DHT22;3733;47.994;8.820;2023-09-18T11:04:03;17.40;99.90
7384;DHT22;3733;47.994;8.820;2023-09-18T11:06:29;17.40;99.90
7384;DHT22;3733;47.994;8.820;2023-09-18T11:09:08;17.40;99.90
7384;DHT22;3733;47.994;8.820;2023-09-18T11:11:34;17.50;99.90
7384;DHT22;3733;47.994;8.820;2023-09-18T11:14:00;17.50;99.90
7384;DHT22;3733;47.994;8.820;2023-09-18T11:21:29;17.40;99.90
7384;DHT22;3733;47.994;8.820;2023-09-18T11:24:21;17.40;99.90
7384;DHT22;3733;47.994;8.820;2023-09-18T11:26:50;17.40;99.90
7384;DHT22;3733;47.994;8.820;2023-09-18T11:29:21;17.40;99.90
7384;DHT22;3733;47.994;8.820;2023-09-18T11:31:53;17.40;99.90
7384;DHT22;3733;47.994;8.820;2023-09-18T11:34:29;17.40;99.90
7384;DHT22;3733;47.994;8.820;2023-09-18T11:37:01;17.50;99.90
7384;DHT22;3733;47.994;8.820;2023-09-18T11:42:20;17.60;99.90
7384;DHT22;3733;47.994;8.820;2023-09-18T11:44:48;17.70;99.90
7384;DHT22;3733;47.994;8.820;2023-09-18T11:47:16;17.80;99.90
7384;DHT22;3733;47.994;8.820;2023-09-18T11:49:57;18.00;99.90
7384;DHT22;3733;47.994;8.820;2023-09-18T11:52:30;18.00;99.90
7384;DHT22;3733;47.994;8.820;2023-09-18T11:54:58;18.00;99.90
7384;DHT22;3733;47.994;8.820;2023-09-18T11:57:24;17.90;99.90
7384;DHT22;3733;47.994;8.820;2023-09-18T11:59:50;17.90;99.90
7384;DHT22;3733;47.994;8.820;2023-09-18T12:02:29;17.80;99.90
7384;DHT22;3733;47.994;8.820;2023-09-18T12:05:16;17.80;99.90
7384;DHT22;3733;47.994;8.820;2023-09-18T12:07:45;17.70;99.90
7384;DHT22;3733;47.994;8.820;2023-09-18T12:10:15;17.70;99.90
7384;DHT22;3733;47.994;8.820;2023-09-18T12:12:46;17.70;99.90
7384;DHT22;3733;47.994;8.820;2023-09-18T12:15:17;17.70;99.90
7384;DHT22;3733;47.994;8.820;2023-09-18T12:17:43;17.70;99.90
7384;DHT22;3733;47.994;8.820;2023-09-18T12:20:16;17.70;99.90
7384;DHT22;3733;47.994;8.820;2023-09-18T12:22:48;17.70;99.90
7384;DHT22;3733;47.994;8.820;2023-09-18T12:25:14;17.70;99.90
7384;DHT22;3733;47.994;8.820;2023-09-18T12:27:41;17.70;99.90
7384;DHT22;3733;47.994;8.820;2023-09-18T12:30:08;17.80;99.90
7384;DHT22;3733;47.994;8.820;2023-09-18T12:32:37;17.80;99.90
7384;DHT22;3733;47.994;8.820;2023-09-18T12:35:03;17.90;99.90
7384;DHT22;3733;47.994;8.820;2023-09-18T12:37:35;18.00;99.90
7384;DHT22;3733;47.994;8.820;2023-09-18T12:40:04;18.00;99.90
7384;DHT22;3733;47.994;8.820;2023-09-18T12:42:36;18.00;99.90
7384;DHT22;3733;47.994;8.820;2023-09-18T12:45:06;18.00;99.90
7384;DHT22;3733;47.994;8.820;2023-09-18T12:47:33;18.00;99.90
7384;DHT22;3733;47.994;8.820;2023-09-18T12:50:03;18.00;99.90
7384;DHT22;3733;47.994;8.820;2023-09-18T12:52:29;18.00;99.90
7384;DHT22;3733;47.994;8.820;2023-09-18T12:54:54;18.00;99.90
7384;DHT22;3733;47.994;8.820;2023-09-18T12:57:21;18.00;99.90
7384;DHT22;3733;47.994;8.820;2023-09-18T12:59:47;18.00;99.90
7384;DHT22;3733;47.994;8.820;2023-09-18T13:02:17;18.00;99.90
7384;DHT22;3733;47.994;8.820;2023-09-18T13:04:51;18.10;99.90
7384;DHT22;3733;47.994;8.820;2023-09-18T13:07:17;18.10;99.90
7384;DHT22;3733;47.994;8.820;2023-09-18T13:09:58;18.10;99.90
7384;DHT22;3733;47.994;8.820;2023-09-18T13:12:24;18.10;99.90
7384;DHT22;3733;47.994;8.820;2023-09-18T13:15:02;18.10;99.90
7384;DHT22;3733;47.994;8.820;2023-09-18T13:17:37;18.10;99.90
7384;DHT22;3733;47.994;8.820;2023-09-18T13:20:16;18.10;99.90
7384;DHT22;3733;47.994;8.820;2023-09-18T13:22:48;18.10;99.90
7384;DHT22;3733;47.994;8.820;2023-09-18T13:25:22;18.10;99.90
7384;DHT22;3733;47.994;8.820;2023-09-18T13:27:49;18.10;99.90
7384;DHT22;3733;47.994;8.820;2023-09-18T13:30:15;18.10;99.90
7384;DHT22;3733;47.994;8.820;2023-09-18T13:32:44;18.10;99.90
7384;DHT22;3733;47.994;8.820;2023-09-18T13:35:10;18.20;99.90
7384;DHT22;3733;47.994;8.820;2023-09-18T13:37:38;18.30;99.90
7384;DHT22;3733;47.994;8.820;2023-09-18T13:40:05;18.40;99.90
7384;DHT22;3733;47.994;8.820;2023-09-18T13:42:35;18.40;99.90
7384;DHT22;3733;47.994;8.820;2023-09-18T13:45:01;18.50;99.90
7384;DHT22;3733;47.994;8.820;2023-09-18T13:47:28;18.60;99.90
7384;DHT22;3733;47.994;8.820;2023-09-18T13:49:53;18.60;99.90
7384;DHT22;3733;47.994;8.820;2023-09-18T13:52:23;18.60;99.90
7384;DHT22;3733;47.994;8.820;2023-09-18T13:54:49;18.70;99.90
7384;DHT22;3733;47.994;8.820;2023-09-18T13:57:20;18.70;99.90
7384;DHT22;3733;47.994;8.820;2023-09-18T13:59:46;18.80;99.90
7384;DHT22;3733;47.994;8.820;2023-09-18T14:02:14;19.00;99.90
7384;DHT22;3733;47.994;8.820;2023-09-18T14:04:40;19.10;99.90
7384;DHT22;3733;47.994;8.820;2023-09-18T14:07:07;19.30;99.90
7384;DHT22;3733;47.994;8.820;2023-09-18T14:09:33;19.30;99.90
7384;DHT22;3733;47.994;8.820;2023-09-18T14:11:59;19.30;99.90
7384;DHT22;3733;47.994;8.820;2023-09-18T14:14:24;19.20;99.90
7384;DHT22;3733;47.994;8.820;2023-09-18T14:16:51;19.10;99.90
7384;DHT22;3733;47.994;8.820;2023-09-18T14:19:16;19.10;99.90
7384;DHT22;3733;47.994;8.820;2023-09-18T14:21:42;19.00;99.90
7384;DHT22;3733;47.994;8.820;2023-09-18T14:24:08;19.10;99.90
7384;DHT22;3733;47.994;8.820;2023-09-18T14:26:35;19.10;99.90
7384;DHT22;3733;47.994;8.820;2023-09-18T14:29:07;19.20;99.90
7384;DHT22;3733;47.994;8.820;2023-09-18T14:31:34;19.20;99.90
7384;DHT22;3733;47.994;8.820;2023-09-18T14:34:00;19.20;99.90
7384;DHT22;3733;47.994;8.820;2023-09-18T14:36:26;19.20;99.90
7384;DHT22;3733;47.994;8.820;2023-09-18T14:38:51;19.30;99.90
7384;DHT22;3733;47.994;8.820;2023-09-18T14:41:17;19.30;99.90
7384;DHT22;3733;47.994;8.820;2023-09-18T14:43:45;19.20;99.90
7384;DHT22;3733;47.994;8.820;2023-09-18T14:46:10;19.10;99.90
7384;DHT22;3733;47.994;8.820;2023-09-18T14:48:36;19.10;99.90
7384;DHT22;3733;47.994;8.820;2023-09-18T14:51:02;19.00;99.90
7384;DHT22;3733;47.994;8.820;2023-09-18T14:53:28;18.90;99.90
7384;DHT22;3733;47.994;8.820;2023-09-18T14:55:53;18.90;99.90
7384;DHT22;3733;47.994;8.820;2023-09-18T14:58:21;18.90;99.90
7384;DHT22;3733;47.994;8.820;2023-09-18T15:00:49;18.90;99.90
7384;DHT22;3733;47.994;8.820;2023-09-18T15:03:15;18.90;99.90
7384;DHT22;3733;47.994;8.820;2023-09-18T15:05:41;18.90;99.90
7384;DHT22;3733;47.994;8.820;2023-09-18T15:08:07;18.90;99.90
7384;DHT22;3733;47.994;8.820;2023-09-18T15:10:33;18.90;99.90
7384;DHT22;3733;47.994;8.820;2023-09-18T15:12:59;18.90;99.90
7384;DHT22;3733;47.994;8.820;2023-09-18T15:15:24;18.80;99.90
7384;DHT22;3733;47.994;8.820;2023-09-18T15:17:50;18.80;99.90
7384;DHT22;3733;47.994;8.820;2023-09-18T15:20:18;18.70;99.90
7384;DHT22;3733;47.994;8.820;2023-09-18T15:22:44;18.70;99.90
7384;DHT22;3733;47.994;8.820;2023-09-18T15:25:10;18.70;99.90
7384;DHT22;3733;47.994;8.820;2023-09-18T15:27:37;18.60;99.90
7384;DHT22;3733;47.994;8.820;2023-09-18T15:30:04;18.60;99.90
7384;DHT22;3733;47.994;8.820;2023-09-18T15:32:49;18.60;99.90
7384;DHT22;3733;47.994;8.820;2023-09-18T15:35:22;18.60;99.90
7384;DHT22;3733;47.994;8.820;2023-09-18T15:37:49;18.60;99.90
7384;DHT22;3733;47.994;8.820;2023-09-18T15:40:15;18.60;99.90
7384;DHT22;3733;47.994;8.820;2023-09-18T15:42:43;18.60;99.90
7384;DHT22;3733;47.994;8.820;2023-09-18T15:45:09;18.50;99.90
7384;DHT22;3733;47.994;8.820;2023-09-18T15:47:40;18.50;99.90
7384;DHT22;3733;47.994;8.820;2023-09-18T15:50:06;18.50;99.90
7384;DHT22;3733;47.994;8.820;2023-09-18T15:52:32;18.40;99.90
7384;DHT22;3733;47.994;8.820;2023-09-18T15:54:59;18.40;99.90
7384;DHT22;3733;47.994;8.820;2023-09-18T15:57:25;18.40;99.90
7384;DHT22;3733;47.994;8.820;2023-09-18T15:59:52;18.40;99.90
7384;DHT22;3733;47.994;8.820;2023-09-18T16:02:18;18.40;99.90
7384;DHT22;3733;47.994;8.820;2023-09-18T16:04:43;18.40;99.90
7384;DHT22;3733;47.994;8.820;2023-09-18T16:07:11;18.30;99.90
7384;DHT22;3733;47.994;8.820;2023-09-18T16:09:39;18.30;99.90
7384;DHT22;3733;47.994;8.820;2023-09-18T16:12:05;18.30;99.90
7384;DHT22;3733;47.994;8.820;2023-09-18T16:14:32;18.30;99.90
7384;DHT22;3733;47.994;8.820;2023-09-18T16:16:58;18.30;99.90
7384;DHT22;3733;47.994;8.820;2023-09-18T16:19:28;18.30;99.90